createdAt,value
2023-02-16T00:00:54.171Z,-2.46
2023-02-16T00:03:37.499Z,-2.50
2023-02-16T00:06:06.303Z,-2.51
2023-02-16T00:08:34.701Z,-2.51
2023-02-16T00:11:22.261Z,-2.48
2023-02-16T00:13:53.332Z,-2.48
2023-02-16T00:16:24.871Z,-2.52
2023-02-16T00:18:53.567Z,-2.56
2023-02-16T00:21:22.518Z,-2.60
2023-02-16T00:23:51.372Z,-2.65
2023-02-16T00:26:26.189Z,-2.75
2023-02-16T00:28:58.937Z,-2.79
2023-02-16T00:31:37.807Z,-2.87
2023-02-16T00:34:39.967Z,-2.89
2023-02-16T00:37:13.875Z,-2.95
2023-02-16T00:39:43.388Z,-2.96
2023-02-16T00:42:24.587Z,-2.99
2023-02-16T00:44:56.273Z,-2.98
2023-02-16T00:47:42.044Z,-3.03
2023-02-16T00:50:26.432Z,-3.05
2023-02-16T00:52:57.423Z,-2.98
2023-02-16T00:55:32.161Z,-2.99
2023-02-16T00:58:11.998Z,-3.00
2023-02-16T01:00:49.882Z,-2.98
2023-02-16T01:03:24.711Z,-3.00
2023-02-16T01:06:12.447Z,-3.00
2023-02-16T01:09:00.066Z,-3.03
2023-02-16T01:11:29.655Z,-3.07
2023-02-16T01:13:58.640Z,-3.08
2023-02-16T01:16:36.876Z,-3.09
2023-02-16T01:19:05.302Z,-3.11
2023-02-16T01:21:34.281Z,-3.14
2023-02-16T01:24:03.111Z,-3.17
2023-02-16T01:26:35.613Z,-3.19
2023-02-16T01:29:04.215Z,-3.18
2023-02-16T01:31:32.904Z,-3.11
2023-02-16T01:34:01.375Z,-3.01
2023-02-16T01:36:42.479Z,-2.90
2023-02-16T01:39:20.123Z,-2.76
2023-02-16T01:42:10.667Z,-2.65
2023-02-16T01:45:18.083Z,-2.53
2023-02-16T01:47:55.601Z,-2.42
2023-02-16T01:50:29.124Z,-2.35
2023-02-16T01:53:02.236Z,-2.25
2023-02-16T01:55:38.380Z,-2.15
2023-02-16T01:58:28.802Z,-2.05
2023-02-16T02:00:57.112Z,-1.96
2023-02-16T02:03:53.001Z,-1.87
2023-02-16T02:06:33.138Z,-1.79
2023-02-16T02:09:54.944Z,-1.75
2023-02-16T02:12:49.771Z,-1.73
2023-02-16T02:15:23.223Z,-1.71
2023-02-16T02:17:51.868Z,-1.70
2023-02-16T02:21:05.655Z,-1.75
2023-02-16T02:24:20.651Z,-1.84
2023-02-16T02:27:00.123Z,-1.97
2023-02-16T02:29:56.655Z,-2.04
2023-02-16T02:32:50.531Z,-2.12
2023-02-16T02:35:51.998Z,-2.17
2023-02-16T02:38:43.326Z,-2.22
2023-02-16T02:41:44.956Z,-2.27
2023-02-16T02:44:18.193Z,-2.27
2023-02-16T02:46:47.447Z,-2.21
2023-02-16T02:49:16.515Z,-2.13
2023-02-16T02:51:44.993Z,-2.07
2023-02-16T02:54:44.143Z,-2.02
2023-02-16T02:57:42.137Z,-1.95
2023-02-16T03:00:32.412Z,-1.88
2023-02-16T03:03:07.628Z,-1.82
2023-02-16T03:05:39.161Z,-1.79
2023-02-16T03:08:14.810Z,-1.75
2023-02-16T03:11:09.508Z,-1.73
2023-02-16T03:13:49.458Z,-1.70
2023-02-16T03:16:25.387Z,-1.67
2023-02-16T03:19:14.891Z,-1.66
2023-02-16T03:22:03.391Z,-1.64
2023-02-16T03:24:52.519Z,-1.64
2023-02-16T03:27:44.370Z,-1.64
2023-02-16T03:30:15.411Z,-1.63
2023-02-16T03:32:45.235Z,-1.62
2023-02-16T03:35:14.658Z,-1.63
2023-02-16T03:37:45.276Z,-1.63
2023-02-16T03:40:28.550Z,-1.63
2023-02-16T03:42:59.898Z,-1.63
2023-02-16T03:45:29.642Z,-1.63
2023-02-16T03:47:58.268Z,-1.65
2023-02-16T03:50:28.123Z,-1.63
2023-02-16T03:53:09.487Z,-1.61
2023-02-16T03:55:41.232Z,-1.61
2023-02-16T03:58:13.196Z,-1.63
2023-02-16T04:00:42.262Z,-1.65
2023-02-16T04:03:11.578Z,-1.68
2023-02-16T04:05:40.226Z,-1.68
2023-02-16T04:08:10.519Z,-1.69
2023-02-16T04:10:39.914Z,-1.70
2023-02-16T04:13:08.270Z,-1.72
2023-02-16T04:15:36.883Z,-1.71
2023-02-16T04:18:05.624Z,-1.72
2023-02-16T04:20:35.729Z,-1.72
2023-02-16T04:23:04.650Z,-1.73
2023-02-16T04:25:33.598Z,-1.72
2023-02-16T04:28:02.672Z,-1.73
2023-02-16T04:30:32.573Z,-1.74
2023-02-16T04:33:01.267Z,-1.74
2023-02-16T04:35:29.866Z,-1.75
2023-02-16T04:37:58.266Z,-1.75
2023-02-16T04:40:26.698Z,-1.75
2023-02-16T04:42:55.142Z,-1.77
2023-02-16T04:45:23.516Z,-1.78
2023-02-16T04:47:51.956Z,-1.80
2023-02-16T04:50:21.037Z,-1.81
2023-02-16T04:52:49.391Z,-1.82
2023-02-16T04:55:18.234Z,-1.83
2023-02-16T04:57:46.961Z,-1.83
2023-02-16T05:00:15.621Z,-1.89
2023-02-16T05:02:44.081Z,-1.94
2023-02-16T05:05:12.613Z,-1.99
2023-02-16T05:07:41.530Z,-2.08
2023-02-16T05:10:10.434Z,-2.14
2023-02-16T05:12:57.581Z,-2.18
2023-02-16T05:15:26.005Z,-2.21
2023-02-16T05:17:55.036Z,-2.22
2023-02-16T05:20:43.414Z,-2.20
2023-02-16T05:23:11.837Z,-2.18
2023-02-16T05:25:40.358Z,-2.15
2023-02-16T05:28:09.502Z,-2.13
2023-02-16T05:30:38.030Z,-2.10
2023-02-16T05:33:06.546Z,-2.09
2023-02-16T05:35:35.694Z,-2.09
2023-02-16T05:38:04.344Z,-2.09
2023-02-16T05:40:32.828Z,-2.08
2023-02-16T05:43:01.231Z,-2.09
2023-02-16T05:45:29.798Z,-2.09
2023-02-16T05:47:58.658Z,-2.09
2023-02-16T05:50:27.201Z,-2.07
2023-02-16T05:52:55.692Z,-2.06
2023-02-16T05:55:24.596Z,-2.07
2023-02-16T05:57:53.060Z,-2.08
2023-02-16T06:00:22.191Z,-2.07
2023-02-16T06:02:51.664Z,-2.04
2023-02-16T06:05:20.363Z,-2.03
2023-02-16T06:07:48.748Z,-2.03
2023-02-16T06:10:18.255Z,-2.04
2023-02-16T06:12:46.569Z,-2.04
2023-02-16T06:15:15.026Z,-2.04
2023-02-16T06:17:44.975Z,-2.04
2023-02-16T06:20:13.558Z,-2.03
2023-02-16T06:22:41.823Z,-2.06
2023-02-16T06:25:10.597Z,-2.02
2023-02-16T06:27:38.915Z,-1.99
2023-02-16T06:30:08.958Z,-1.93
2023-02-16T06:32:37.880Z,-1.88
2023-02-16T06:35:06.544Z,-1.82
2023-02-16T06:37:34.866Z,-1.77
2023-02-16T06:40:03.407Z,-1.72
2023-02-16T06:42:31.651Z,-1.66
2023-02-16T06:45:00.053Z,-1.59
2023-02-16T06:47:28.293Z,-1.52
2023-02-16T06:49:56.719Z,-1.46
2023-02-16T06:52:25.582Z,-1.38
2023-02-16T06:54:54.022Z,-1.30
2023-02-16T06:57:22.880Z,-1.18
2023-02-16T06:59:51.348Z,-1.09
2023-02-16T07:02:28.659Z,-0.96
2023-02-16T07:04:57.052Z,-0.71
2023-02-16T07:07:25.398Z,-0.26
2023-02-16T07:09:53.978Z,0.15
2023-02-16T07:12:22.344Z,0.83
2023-02-16T07:14:50.716Z,1.61
2023-02-16T07:17:19.103Z,2.19
2023-02-16T07:19:48.107Z,2.46
2023-02-16T07:22:17.930Z,2.80
2023-02-16T07:24:46.314Z,3.03
2023-02-16T07:27:15.263Z,3.30
2023-02-16T07:29:47.130Z,3.65
2023-02-16T07:32:15.608Z,3.97
2023-02-16T07:34:44.016Z,4.50
2023-02-16T07:37:12.694Z,4.87
2023-02-16T07:39:41.066Z,5.15
2023-02-16T07:42:09.914Z,5.53
2023-02-16T07:44:38.404Z,6.11
2023-02-16T07:47:06.764Z,6.29
2023-02-16T07:49:35.140Z,6.31
2023-02-16T07:52:04.098Z,6.59
2023-02-16T07:54:33.987Z,7.22
2023-02-16T07:57:02.477Z,7.83
2023-02-16T07:59:31.300Z,8.38
2023-02-16T08:02:00.570Z,8.77
2023-02-16T08:04:29.392Z,9.09
2023-02-16T08:06:57.787Z,9.31
2023-02-16T08:09:26.209Z,9.58
2023-02-16T08:11:55.640Z,9.82
2023-02-16T08:14:24.087Z,10.09
2023-02-16T08:16:55.466Z,10.67
2023-02-16T08:19:25.002Z,11.61
2023-02-16T08:21:54.904Z,12.08
2023-02-16T08:24:25.483Z,12.29
2023-02-16T08:26:54.244Z,12.29
2023-02-16T08:29:24.082Z,12.57
2023-02-16T08:31:54.325Z,12.42
2023-02-16T08:34:23.876Z,12.51
2023-02-16T08:36:56.922Z,12.70
2023-02-16T08:39:30.246Z,13.10
2023-02-16T08:42:00.952Z,13.46
2023-02-16T08:44:29.995Z,13.72
2023-02-16T08:47:01.323Z,13.58
2023-02-16T08:49:29.874Z,13.25
2023-02-16T08:52:01.894Z,12.94
2023-02-16T08:54:33.662Z,12.79
2023-02-16T08:57:03.268Z,12.45
2023-02-16T08:59:33.773Z,12.02
2023-02-16T09:02:02.588Z,11.57
2023-02-16T09:04:31.289Z,11.14
2023-02-16T09:07:00.625Z,11.00
2023-02-16T09:09:29.260Z,10.89
2023-02-16T09:11:58.472Z,10.50
2023-02-16T09:14:28.304Z,10.21
2023-02-16T09:16:58.414Z,9.77
2023-02-16T09:19:28.506Z,9.35
2023-02-16T09:21:57.598Z,9.19
2023-02-16T09:24:27.220Z,9.08
2023-02-16T09:26:55.812Z,8.81
2023-02-16T09:29:24.377Z,8.43
2023-02-16T09:31:55.225Z,8.11
2023-02-16T09:34:26.851Z,7.86
2023-02-16T09:36:56.231Z,7.65
2023-02-16T09:39:25.473Z,7.42
2023-02-16T09:42:20.909Z,7.21
2023-02-16T09:45:10.080Z,6.91
2023-02-16T09:47:42.500Z,6.77
2023-02-16T09:50:38.209Z,6.64
2023-02-16T09:53:40.202Z,6.54
2023-02-16T09:56:33.532Z,6.43
2023-02-16T09:59:24.929Z,6.40
2023-02-16T10:02:28.434Z,6.45
2023-02-16T10:05:17.646Z,6.43
2023-02-16T10:07:59.520Z,6.50
2023-02-16T10:10:54.749Z,6.61
2023-02-16T10:13:30.645Z,6.72
2023-02-16T10:16:03.296Z,6.66
2023-02-16T10:18:38.093Z,6.64
2023-02-16T10:21:15.577Z,6.59
2023-02-16T10:24:07.091Z,6.64
2023-02-16T10:26:39.877Z,6.60
2023-02-16T10:29:16.059Z,6.59
2023-02-16T10:32:00.738Z,6.59
2023-02-16T10:34:52.197Z,6.56
2023-02-16T10:37:48.843Z,6.53
2023-02-16T10:40:38.905Z,6.50
2023-02-16T10:43:16.578Z,6.53
2023-02-16T10:45:52.368Z,6.54
2023-02-16T10:48:23.738Z,6.49
2023-02-16T10:51:07.739Z,6.48
2023-02-16T10:53:44.430Z,6.54
2023-02-16T10:56:24.042Z,6.63
2023-02-16T10:58:53.140Z,6.70
2023-02-16T11:01:36.532Z,6.75
2023-02-16T11:05:09.242Z,6.83
2023-02-16T11:07:53.379Z,6.88
2023-02-16T11:10:35.187Z,6.87
2023-02-16T11:13:04.105Z,6.88
2023-02-16T11:15:33.763Z,6.93
2023-02-16T11:18:19.020Z,6.88
2023-02-16T11:20:48.076Z,6.86
2023-02-16T11:23:42.270Z,6.82
2023-02-16T11:26:12.077Z,6.79
2023-02-16T11:28:46.381Z,6.80
2023-02-16T11:31:41.482Z,6.86
2023-02-16T11:34:31.813Z,6.91
2023-02-16T11:37:28.832Z,6.80
2023-02-16T11:40:07.654Z,6.73
2023-02-16T11:42:49.154Z,6.70
2023-02-16T11:45:34.901Z,6.65
2023-02-16T11:48:12.690Z,6.59
2023-02-16T11:51:01.141Z,6.58
2023-02-16T11:53:33.115Z,6.61
2023-02-16T11:56:21.882Z,6.68
2023-02-16T11:59:19.665Z,6.78
2023-02-16T12:02:08.959Z,6.85
2023-02-16T12:04:37.357Z,6.80
2023-02-16T12:07:32.798Z,6.78
2023-02-16T12:10:10.656Z,6.79
2023-02-16T12:13:01.166Z,6.85
2023-02-16T12:15:55.105Z,6.94
2023-02-16T12:18:42.392Z,6.98
2023-02-16T12:21:36.927Z,7.01
2023-02-16T12:24:23.359Z,7.08
2023-02-16T12:27:02.127Z,7.14
2023-02-16T12:30:13.607Z,7.23
2023-02-16T12:33:28.346Z,7.31
2023-02-16T12:36:24.251Z,7.34
2023-02-16T12:39:17.156Z,7.33
2023-02-16T12:42:16.909Z,7.36
2023-02-16T12:44:55.599Z,7.35
2023-02-16T12:47:33.126Z,7.30
2023-02-16T12:50:05.352Z,7.25
2023-02-16T12:52:41.988Z,7.20
2023-02-16T12:55:32.212Z,7.25
2023-02-16T12:58:04.946Z,7.33
2023-02-16T13:00:58.930Z,7.39
2023-02-16T13:04:12.917Z,7.48
2023-02-16T13:06:49.566Z,7.56
2023-02-16T13:09:34.416Z,7.56
2023-02-16T13:12:18.444Z,7.56
2023-02-16T13:14:56.231Z,7.55
2023-02-16T13:17:35.562Z,7.50
2023-02-16T13:20:05.332Z,7.45
2023-02-16T13:22:54.298Z,7.39
2023-02-16T13:25:47.250Z,7.41
2023-02-16T13:28:32.761Z,7.43
2023-02-16T13:31:49.440Z,7.46
2023-02-16T13:34:56.887Z,7.48
2023-02-16T13:37:57.219Z,7.50
2023-02-16T13:40:54.213Z,7.53
2023-02-16T13:43:52.632Z,7.57
2023-02-16T13:46:39.931Z,7.57
2023-02-16T13:49:33.116Z,7.53
2023-02-16T13:52:01.795Z,7.50
2023-02-16T13:54:44.144Z,7.52
2023-02-16T13:57:14.350Z,7.56
2023-02-16T13:59:58.709Z,7.60
2023-02-16T14:03:13.099Z,7.62
2023-02-16T14:05:48.343Z,7.64
2023-02-16T14:08:28.800Z,7.65
2023-02-16T14:11:01.045Z,7.64
2023-02-16T14:13:38.732Z,7.62
2023-02-16T14:16:17.419Z,7.60
2023-02-16T14:19:06.226Z,7.60
2023-02-16T14:21:42.241Z,7.61
2023-02-16T14:24:22.844Z,7.61
2023-02-16T14:26:59.685Z,7.61
2023-02-16T14:29:35.762Z,7.59
2023-02-16T14:32:19.630Z,7.58
2023-02-16T14:35:16.057Z,7.54
2023-02-16T14:38:02.482Z,7.50
2023-02-16T14:40:53.674Z,7.48
2023-02-16T14:43:56.503Z,7.48
2023-02-16T14:46:45.760Z,7.47
2023-02-16T14:49:15.246Z,7.45
2023-02-16T14:52:21.360Z,7.43
2023-02-16T14:55:21.151Z,7.40
2023-02-16T14:57:57.638Z,7.35
2023-02-16T15:00:27.055Z,7.29
2023-02-16T15:03:06.074Z,7.25
2023-02-16T15:05:37.656Z,7.20
2023-02-16T15:08:16.908Z,7.17
2023-02-16T15:10:47.012Z,7.16
2023-02-16T15:13:28.522Z,7.15
2023-02-16T15:16:02.492Z,7.13
2023-02-16T15:18:41.489Z,7.11
2023-02-16T15:21:29.052Z,7.07
2023-02-16T15:24:00.970Z,7.01
2023-02-16T15:26:34.059Z,6.94
2023-02-16T15:29:23.022Z,6.84
2023-02-16T15:31:53.174Z,6.76
2023-02-16T15:34:35.379Z,6.68
2023-02-16T15:37:34.528Z,6.61
2023-02-16T15:40:33.659Z,6.53
2023-02-16T15:43:25.432Z,6.45
2023-02-16T15:45:55.338Z,6.36
2023-02-16T15:48:32.848Z,6.26
2023-02-16T15:51:25.570Z,6.14
2023-02-16T15:54:04.480Z,6.02
2023-02-16T15:56:52.077Z,5.93
2023-02-16T15:59:39.585Z,5.84
2023-02-16T16:02:37.965Z,5.72
2023-02-16T16:05:22.861Z,5.63
2023-02-16T16:07:53.204Z,5.55
2023-02-16T16:10:27.352Z,5.47
2023-02-16T16:13:04.403Z,5.40
2023-02-16T16:15:39.320Z,5.33
2023-02-16T16:18:34.614Z,5.26
2023-02-16T16:21:05.304Z,5.20
2023-02-16T16:23:35.345Z,5.16
2023-02-16T16:26:18.853Z,5.14
2023-02-16T16:28:48.686Z,5.09
2023-02-16T16:31:23.829Z,5.04
2023-02-16T16:33:59.407Z,4.99
2023-02-16T16:36:49.247Z,4.94
2023-02-16T16:39:18.353Z,4.90
2023-02-16T16:42:13.783Z,4.88
2023-02-16T16:45:01.288Z,4.85
2023-02-16T16:47:41.808Z,4.81
2023-02-16T16:50:15.267Z,4.76
2023-02-16T16:52:53.713Z,4.71
2023-02-16T16:55:36.120Z,4.66
2023-02-16T16:58:10.826Z,4.61
2023-02-16T17:00:42.712Z,4.58
2023-02-16T17:03:18.970Z,4.55
2023-02-16T17:05:48.022Z,4.50
2023-02-16T17:08:19.173Z,4.46
2023-02-16T17:10:50.681Z,4.40
2023-02-16T17:13:23.901Z,4.33
2023-02-16T17:16:01.741Z,4.27
2023-02-16T17:18:32.127Z,4.21
2023-02-16T17:21:08.807Z,4.20
2023-02-16T17:23:52.391Z,4.17
2023-02-16T17:26:24.145Z,4.13
2023-02-16T17:28:54.009Z,4.11
2023-02-16T17:31:27.355Z,4.08
2023-02-16T17:33:58.937Z,4.03
2023-02-16T17:36:29.114Z,4.00
2023-02-16T17:38:59.131Z,3.96
2023-02-16T17:41:31.359Z,3.92
2023-02-16T17:44:01.847Z,3.89
2023-02-16T17:46:33.777Z,3.87
2023-02-16T17:49:04.344Z,3.83
2023-02-16T17:51:37.139Z,3.80
2023-02-16T17:54:09.677Z,3.78
2023-02-16T17:56:41.004Z,3.75
2023-02-16T17:59:22.516Z,3.72
2023-02-16T18:01:54.272Z,3.65
2023-02-16T18:04:23.723Z,3.53
2023-02-16T18:06:56.805Z,3.49
2023-02-16T18:09:27.410Z,3.46
2023-02-16T18:11:57.609Z,3.40
2023-02-16T18:14:27.047Z,3.33
2023-02-16T18:17:00.679Z,3.30
2023-02-16T18:19:32.903Z,3.28
2023-02-16T18:22:05.482Z,3.28
2023-02-16T18:24:37.039Z,3.26
2023-02-16T18:27:07.570Z,3.23
2023-02-16T18:29:39.179Z,3.17
2023-02-16T18:32:10.086Z,3.10
2023-02-16T18:34:41.301Z,3.07
2023-02-16T18:37:13.777Z,3.07
2023-02-16T18:39:48.288Z,3.08
2023-02-16T18:42:18.922Z,3.07
2023-02-16T18:44:50.001Z,3.04
2023-02-16T18:47:21.366Z,3.02
2023-02-16T18:49:53.532Z,3.00
2023-02-16T18:52:25.503Z,2.92
2023-02-16T18:54:55.746Z,2.85
2023-02-16T18:57:26.922Z,2.83
2023-02-16T19:00:00.188Z,2.85
2023-02-16T19:02:31.576Z,2.87
2023-02-16T19:05:01.145Z,2.88
2023-02-16T19:07:31.504Z,2.90
2023-02-16T19:10:02.432Z,2.89
2023-02-16T19:12:32.899Z,2.90
2023-02-16T19:15:05.651Z,2.89
2023-02-16T19:17:40.507Z,2.95
2023-02-16T19:20:17.732Z,3.02
2023-02-16T19:22:53.725Z,3.09
2023-02-16T19:25:25.537Z,3.15
2023-02-16T19:27:55.264Z,3.21
2023-02-16T19:30:25.730Z,3.26
2023-02-16T19:33:00.603Z,3.30
2023-02-16T19:35:31.444Z,3.34
2023-02-16T19:38:06.304Z,3.37
2023-02-16T19:40:38.445Z,3.41
2023-02-16T19:43:09.217Z,3.45
2023-02-16T19:45:42.146Z,3.49
2023-02-16T19:48:15.292Z,3.52
2023-02-16T19:50:46.890Z,3.54
2023-02-16T19:53:17.689Z,3.54
2023-02-16T19:55:49.465Z,3.55
2023-02-16T19:58:24.485Z,3.56
2023-02-16T20:01:08.542Z,3.59
2023-02-16T20:19:19.581Z,4.11
2023-02-16T20:22:54.863Z,4.15
2023-02-16T20:45:29.036Z,4.11
2023-02-16T20:49:12.552Z,4.07
2023-02-16T20:56:56.573Z,4.09
2023-02-16T21:00:30.572Z,4.05
2023-02-16T21:04:01.153Z,4.05
2023-02-16T21:07:23.953Z,4.05
2023-02-16T21:11:02.235Z,4.04
2023-02-16T21:17:41.313Z,4.03
2023-02-16T22:11:02.231Z,4.02
2023-02-16T22:14:23.751Z,4.01
2023-02-16T22:17:55.555Z,3.97
2023-02-16T22:25:34.765Z,4.00
2023-02-16T22:29:02.835Z,4.06
2023-02-16T22:36:39.700Z,4.19
2023-02-16T22:40:09.656Z,4.16
2023-02-16T22:58:55.155Z,4.12
2023-02-16T23:02:33.971Z,4.02
2023-02-16T23:05:41.944Z,4.00
2023-02-16T23:09:22.146Z,4.03
2023-02-16T23:51:35.593Z,4.23
2023-02-16T23:55:14.177Z,4.26
